sensor_id;sensor_type;location;lat;lon;timestamp;P1;durP1;ratioP1;P2;durP2;ratioP2
43690;SDS011;29293;52.190;21.226;2023-04-24T00:01:01;17.00;;;8.80;;
43690;SDS011;29293;52.190;21.226;2023-04-24T00:16:11;14.90;;;9.10;;
43690;SDS011;29293;52.190;21.226;2023-04-24T00:31:20;18.50;;;8.70;;
43690;SDS011;29293;52.190;21.226;2023-04-24T00:46:29;12.10;;;8.30;;
43690;SDS011;29293;52.190;21.226;2023-04-24T01:01:37;13.70;;;8.30;;
43690;SDS011;29293;52.190;21.226;2023-04-24T01:16:45;18.00;;;9.40;;
43690;SDS011;29293;52.190;21.226;2023-04-24T01:31:52;15.20;;;8.70;;
43690;SDS011;29293;52.190;21.226;2023-04-24T02:02:07;13.40;;;9.30;;
43690;SDS011;29293;52.190;21.226;2023-04-24T02:17:14;17.40;;;9.70;;
43690;SDS011;29293;52.190;21.226;2023-04-24T02:32:23;16.30;;;10.40;;
43690;SDS011;29293;52.190;21.226;2023-04-24T02:47:29;19.70;;;10.20;;
43690;SDS011;29293;52.190;21.226;2023-04-24T03:02:37;18.00;;;10.70;;
43690;SDS011;29293;52.190;21.226;2023-04-24T03:17:44;17.10;;;9.90;;
43690;SDS011;29293;52.190;21.226;2023-04-24T03:32:51;17.10;;;10.90;;
43690;SDS011;29293;52.190;21.226;2023-04-24T03:47:58;17.30;;;10.30;;
43690;SDS011;29293;52.190;21.226;2023-04-24T04:03:05;16.20;;;9.80;;
43690;SDS011;29293;52.190;21.226;2023-04-24T04:18:12;17.00;;;10.40;;
43690;SDS011;29293;52.190;21.226;2023-04-24T04:33:19;18.00;;;9.90;;
43690;SDS011;29293;52.190;21.226;2023-04-24T04:48:26;16.70;;;10.10;;
43690;SDS011;29293;52.190;21.226;2023-04-24T05:03:35;18.20;;;10.90;;
43690;SDS011;29293;52.190;21.226;2023-04-24T05:18:42;18.80;;;10.20;;
43690;SDS011;29293;52.190;21.226;2023-04-24T05:33:49;19.00;;;10.90;;
43690;SDS011;29293;52.190;21.226;2023-04-24T05:48:56;18.00;;;10.30;;
43690;SDS011;29293;52.190;21.226;2023-04-24T06:04:03;17.30;;;9.60;;
43690;SDS011;29293;52.190;21.226;2023-04-24T06:19:10;14.30;;;8.10;;
43690;SDS011;29293;52.190;21.226;2023-04-24T06:34:17;17.10;;;9.30;;
43690;SDS011;29293;52.190;21.226;2023-04-24T06:49:24;12.80;;;8.40;;
43690;SDS011;29293;52.190;21.226;2023-04-24T07:04:30;14.00;;;8.20;;
43690;SDS011;29293;52.190;21.226;2023-04-24T07:19:37;11.70;;;7.60;;
43690;SDS011;29293;52.190;21.226;2023-04-24T07:34:44;12.40;;;7.50;;
43690;SDS011;29293;52.190;21.226;2023-04-24T07:49:51;11.50;;;7.40;;
43690;SDS011;29293;52.190;21.226;2023-04-24T08:04:57;20.50;;;7.70;;
43690;SDS011;29293;52.190;21.226;2023-04-24T08:20:05;12.60;;;6.90;;
43690;SDS011;29293;52.190;21.226;2023-04-24T08:35:17;11.30;;;6.90;;
43690;SDS011;29293;52.190;21.226;2023-04-24T08:50:24;9.80;;;6.40;;
43690;SDS011;29293;52.190;21.226;2023-04-24T09:05:31;16.70;;;7.50;;
43690;SDS011;29293;52.190;21.226;2023-04-24T09:36:06;10.70;;;7.00;;
43690;SDS011;29293;52.190;21.226;2023-04-24T09:51:13;10.40;;;7.30;;
43690;SDS011;29293;52.190;21.226;2023-04-24T10:06:20;13.00;;;7.10;;
43690;SDS011;29293;52.190;21.226;2023-04-24T10:21:27;10.70;;;6.70;;
43690;SDS011;29293;52.190;21.226;2023-04-24T10:36:35;10.10;;;5.80;;
43690;SDS011;29293;52.190;21.226;2023-04-24T10:51:45;9.50;;;6.20;;
43690;SDS011;29293;52.190;21.226;2023-04-24T11:06:53;6.20;;;4.90;;
43690;SDS011;29293;52.190;21.226;2023-04-24T11:22:01;6.90;;;4.80;;
43690;SDS011;29293;52.190;21.226;2023-04-24T11:37:08;9.80;;;5.90;;
43690;SDS011;29293;52.190;21.226;2023-04-24T11:52:17;7.90;;;5.20;;
43690;SDS011;29293;52.190;21.226;2023-04-24T12:07:24;7.40;;;4.60;;
43690;SDS011;29293;52.190;21.226;2023-04-24T12:22:43;6.60;;;4.90;;
43690;SDS011;29293;52.190;21.226;2023-04-24T12:37:51;8.30;;;4.90;;
43690;SDS011;29293;52.190;21.226;2023-04-24T12:52:58;7.40;;;4.20;;
43690;SDS011;29293;52.190;21.226;2023-04-24T13:08:05;8.50;;;3.50;;
43690;SDS011;29293;52.190;21.226;2023-04-24T13:23:12;9.60;;;4.10;;
43690;SDS011;29293;52.190;21.226;2023-04-24T13:38:19;10.40;;;4.50;;
43690;SDS011;29293;52.190;21.226;2023-04-24T13:53:27;6.40;;;3.20;;
43690;SDS011;29293;52.190;21.226;2023-04-24T14:08:33;4.20;;;2.90;;
43690;SDS011;29293;52.190;21.226;2023-04-24T14:23:40;5.00;;;3.20;;
43690;SDS011;29293;52.190;21.226;2023-04-24T14:38:47;7.00;;;3.10;;
43690;SDS011;29293;52.190;21.226;2023-04-24T14:53:55;6.50;;;4.00;;
43690;SDS011;29293;52.190;21.226;2023-04-24T15:09:03;5.20;;;3.50;;
43690;SDS011;29293;52.190;21.226;2023-04-24T15:24:10;5.70;;;4.10;;
43690;SDS011;29293;52.190;21.226;2023-04-24T15:39:17;4.60;;;4.00;;
43690;SDS011;29293;52.190;21.226;2023-04-24T16:32:26;8.80;;;3.90;;
43690;SDS011;29293;52.190;21.226;2023-04-24T16:47:36;6.90;;;4.20;;
43690;SDS011;29293;52.190;21.226;2023-04-24T17:03:07;6.00;;;4.20;;
43690;SDS011;29293;52.190;21.226;2023-04-24T17:18:14;8.90;;;4.30;;
43690;SDS011;29293;52.190;21.226;2023-04-24T17:33:21;7.70;;;4.20;;
43690;SDS011;29293;52.190;21.226;2023-04-24T17:48:31;8.30;;;4.40;;
43690;SDS011;29293;52.190;21.226;2023-04-24T18:03:39;11.70;;;5.50;;
43690;SDS011;29293;52.190;21.226;2023-04-24T18:18:47;12.60;;;5.70;;
43690;SDS011;29293;52.190;21.226;2023-04-24T18:33:53;17.40;;;6.10;;
43690;SDS011;29293;52.190;21.226;2023-04-24T18:49:00;12.90;;;6.00;;
43690;SDS011;29293;52.190;21.226;2023-04-24T19:04:07;12.50;;;7.40;;
43690;SDS011;29293;52.190;21.226;2023-04-24T19:19:18;13.70;;;7.30;;
43690;SDS011;29293;52.190;21.226;2023-04-24T19:34:30;15.70;;;7.80;;
43690;SDS011;29293;52.190;21.226;2023-04-24T19:49:37;12.10;;;7.40;;
43690;SDS011;29293;52.190;21.226;2023-04-24T20:04:44;14.80;;;8.40;;
43690;SDS011;29293;52.190;21.226;2023-04-24T20:19:51;12.30;;;7.30;;
43690;SDS011;29293;52.190;21.226;2023-04-24T20:34:58;12.20;;;6.00;;
43690;SDS011;29293;52.190;21.226;2023-04-24T20:50:06;11.10;;;7.50;;
43690;SDS011;29293;52.190;21.226;2023-04-24T21:05:14;13.20;;;7.20;;
43690;SDS011;29293;52.190;21.226;2023-04-24T21:20:21;13.20;;;7.70;;
43690;SDS011;29293;52.190;21.226;2023-04-24T21:35:29;17.10;;;7.30;;
43690;SDS011;29293;52.190;21.226;2023-04-24T21:50:36;13.00;;;8.20;;
43690;SDS011;29293;52.190;21.226;2023-04-24T22:05:43;16.70;;;8.10;;
43690;SDS011;29293;52.190;21.226;2023-04-24T22:20:49;13.60;;;9.10;;
43690;SDS011;29293;52.190;21.226;2023-04-24T22:35:58;13.40;;;8.70;;
43690;SDS011;29293;52.190;21.226;2023-04-24T22:51:05;13.40;;;8.80;;
43690;SDS011;29293;52.190;21.226;2023-04-24T23:06:13;12.80;;;9.50;;
43690;SDS011;29293;52.190;21.226;2023-04-24T23:21:20;15.40;;;9.40;;
43690;SDS011;29293;52.190;21.226;2023-04-24T23:36:27;12.50;;;9.80;;
43690;SDS011;29293;52.190;21.226;2023-04-24T23:51:34;18.60;;;11.00;;
